createdAt,value
2023-03-31T00:02:56.447Z,99470.50
2023-03-31T00:08:05.290Z,99472.59
2023-03-31T00:13:10.547Z,99470.31
2023-03-31T00:18:16.877Z,99462.91
2023-03-31T00:23:28.235Z,99458.97
2023-03-31T00:28:33.548Z,99452.88
2023-03-31T00:33:39.138Z,99438.78
2023-03-31T00:38:47.687Z,99443.38
2023-03-31T00:44:05.321Z,99433.69
2023-03-31T00:49:27.634Z,99425.69
2023-03-31T00:54:34.685Z,99423.34
2023-03-31T00:59:41.726Z,99424.53
2023-03-31T01:04:55.700Z,99408.47
2023-03-31T01:10:07.631Z,99389.16
2023-03-31T01:15:13.391Z,99391.78
2023-03-31T01:20:32.592Z,99370.16
2023-03-31T01:26:21.969Z,99358.03
2023-03-31T01:31:58.422Z,99356.41
2023-03-31T01:37:34.944Z,99351.44
2023-03-31T01:42:45.832Z,99335.22
2023-03-31T01:47:59.721Z,99345.63
2023-03-31T01:53:15.605Z,99346.44
2023-03-31T01:58:34.475Z,99327.75
2023-03-31T02:03:43.465Z,99318.44
2023-03-31T02:08:54.236Z,99320.88
2023-03-31T02:14:05.040Z,99313.53
2023-03-31T02:19:14.415Z,99305.84
2023-03-31T02:24:21.394Z,99305.03
2023-03-31T02:29:27.469Z,99292.13
2023-03-31T02:34:40.103Z,99275.13
2023-03-31T02:39:52.448Z,99271.06
2023-03-31T02:45:04.624Z,99271.06
2023-03-31T02:50:10.693Z,99247.97
2023-03-31T02:55:32.949Z,99247.66
2023-03-31T03:00:56.707Z,99231.13
2023-03-31T03:06:14.123Z,99227.19
2023-03-31T03:11:31.204Z,99230.47
2023-03-31T03:16:43.805Z,99214.75
2023-03-31T03:21:48.871Z,99211.00
2023-03-31T03:26:53.261Z,99198.56
2023-03-31T03:32:01.415Z,99201.19
2023-03-31T03:37:07.233Z,99191.03
2023-03-31T03:42:11.318Z,99186.47
2023-03-31T03:47:23.341Z,99172.22
2023-03-31T03:52:35.458Z,99171.69
2023-03-31T03:57:39.753Z,99166.94
2023-03-31T04:02:48.775Z,99162.38
2023-03-31T04:07:54.608Z,99152.72
2023-03-31T04:13:00.460Z,99142.59
2023-03-31T04:18:12.372Z,99128.03
2023-03-31T04:23:18.949Z,99130.81
2023-03-31T04:28:23.261Z,99116.41
2023-03-31T04:33:51.094Z,99117.03
2023-03-31T04:38:56.384Z,99108.03
2023-03-31T04:44:02.409Z,99098.06
2023-03-31T04:49:09.080Z,99080.38
2023-03-31T04:54:13.168Z,99059.56
2023-03-31T04:59:50.523Z,99055.63
2023-03-31T05:04:56.524Z,99044.34
2023-03-31T05:10:00.628Z,99038.44
2023-03-31T05:15:04.547Z,99013.88
2023-03-31T05:20:23.392Z,99010.75
2023-03-31T05:25:32.847Z,99003.53
2023-03-31T05:30:36.416Z,98986.81
2023-03-31T05:35:57.643Z,98974.22
2023-03-31T05:41:48.296Z,98968.63
2023-03-31T05:46:52.309Z,98965.44
2023-03-31T05:52:02.882Z,98958.50
2023-03-31T05:57:08.256Z,98952.63
2023-03-31T06:02:15.754Z,98953.53
2023-03-31T06:07:31.679Z,98950.91
2023-03-31T06:12:38.439Z,98943.81
2023-03-31T06:17:48.191Z,98940.19
2023-03-31T06:22:56.727Z,98944.09
2023-03-31T06:28:10.909Z,98943.75
2023-03-31T06:33:24.026Z,98939.25
2023-03-31T06:38:32.482Z,98922.81
2023-03-31T06:43:40.678Z,98935.81
2023-03-31T06:48:44.676Z,98928.38
2023-03-31T06:54:03.674Z,98925.34
2023-03-31T06:59:13.362Z,98911.31
2023-03-31T07:04:25.832Z,98898.09
2023-03-31T07:09:34.132Z,98886.97
2023-03-31T07:14:43.588Z,98872.78
2023-03-31T07:19:48.420Z,98872.25
2023-03-31T07:24:59.570Z,98870.44
2023-03-31T07:30:04.463Z,98869.63
2023-03-31T07:35:12.485Z,98855.75
2023-03-31T07:40:22.725Z,98867.63
2023-03-31T07:45:30.965Z,98863.53
2023-03-31T07:50:39.627Z,98866.97
2023-03-31T07:55:54.050Z,98869.75
2023-03-31T08:01:01.621Z,98865.78
2023-03-31T08:06:07.042Z,98860.03
2023-03-31T08:11:17.954Z,98856.94
2023-03-31T08:16:27.050Z,98847.09
2023-03-31T08:21:31.598Z,98833.44
2023-03-31T08:26:45.535Z,98824.16
2023-03-31T08:31:50.058Z,98807.81
2023-03-31T08:36:57.983Z,98802.13
2023-03-31T08:42:16.067Z,98798.38
2023-03-31T08:47:26.234Z,98795.22
2023-03-31T08:52:38.246Z,98805.28
2023-03-31T08:57:53.090Z,98798.69
2023-03-31T09:03:07.196Z,98784.50
2023-03-31T09:08:35.665Z,98772.94
2023-03-31T09:14:14.692Z,98765.47
2023-03-31T09:19:35.070Z,98753.22
2023-03-31T09:24:49.576Z,98756.75
2023-03-31T09:29:57.761Z,98754.69
2023-03-31T09:35:19.317Z,98735.72
2023-03-31T09:40:28.251Z,98729.22
2023-03-31T09:45:35.076Z,98733.84
2023-03-31T09:50:47.935Z,98711.22
2023-03-31T09:55:57.980Z,98700.47
2023-03-31T10:01:14.997Z,98697.53
2023-03-31T10:06:40.603Z,98694.41
2023-03-31T10:11:58.329Z,98684.66
2023-03-31T10:17:13.149Z,98682.72
2023-03-31T10:22:32.554Z,98670.84
2023-03-31T10:27:43.016Z,98668.69
2023-03-31T10:32:51.240Z,98664.59
2023-03-31T10:38:09.584Z,98653.41
2023-03-31T10:43:28.812Z,98648.00
2023-03-31T10:48:35.193Z,98633.03
2023-03-31T10:53:48.092Z,98622.53
2023-03-31T10:59:18.039Z,98616.03
2023-03-31T11:04:55.169Z,98606.09
2023-03-31T11:10:32.904Z,98608.31
2023-03-31T11:15:46.910Z,98600.81
2023-03-31T11:21:06.136Z,98594.47
2023-03-31T11:26:22.155Z,98582.47
2023-03-31T11:31:37.428Z,98582.13
2023-03-31T11:37:00.907Z,98585.50
2023-03-31T11:42:16.158Z,98580.44
2023-03-31T11:47:30.836Z,98573.50
2023-03-31T11:52:43.095Z,98569.59
2023-03-31T11:57:59.888Z,98567.97
2023-03-31T12:03:39.262Z,98568.69
2023-03-31T12:08:56.849Z,98558.06
2023-03-31T12:14:19.104Z,98539.50
2023-03-31T12:19:30.573Z,98533.97
2023-03-31T12:24:40.334Z,98521.91
2023-03-31T12:29:57.338Z,98513.38
2023-03-31T12:35:13.684Z,98511.31
2023-03-31T12:40:32.954Z,98505.03
2023-03-31T12:45:50.973Z,98502.31
2023-03-31T12:51:19.743Z,98495.06
2023-03-31T12:56:24.700Z,98489.75
2023-03-31T13:01:39.221Z,98483.22
2023-03-31T13:07:27.200Z,98482.28
2023-03-31T13:12:36.017Z,98468.88
2023-03-31T13:17:44.034Z,98469.75
2023-03-31T13:22:53.976Z,98459.47
2023-03-31T13:27:59.270Z,98459.88
2023-03-31T13:33:18.302Z,98457.31
2023-03-31T13:38:47.617Z,98449.44
2023-03-31T13:44:29.567Z,98458.13
2023-03-31T13:50:05.903Z,98446.56
2023-03-31T13:55:43.477Z,98445.53
2023-03-31T14:01:08.020Z,98438.22
2023-03-31T14:06:21.009Z,98429.88
2023-03-31T14:16:53.689Z,98409.94
2023-03-31T14:22:09.655Z,98409.00
2023-03-31T14:27:29.002Z,98402.56
2023-03-31T14:32:54.028Z,98407.06
2023-03-31T14:37:58.338Z,98402.81
2023-03-31T14:43:08.260Z,98445.56
2023-03-31T14:48:15.410Z,98451.38
2023-03-31T14:53:22.195Z,98437.28
2023-03-31T14:58:29.666Z,98442.06
2023-03-31T15:03:37.804Z,98426.28
2023-03-31T15:08:42.367Z,98403.03
2023-03-31T15:14:01.194Z,98403.53
2023-03-31T15:19:17.995Z,98407.28
2023-03-31T15:24:25.849Z,98406.66
2023-03-31T15:29:39.581Z,98403.88
2023-03-31T15:34:48.174Z,98395.44
2023-03-31T15:39:55.708Z,98397.44
2023-03-31T15:45:41.156Z,98396.19
2023-03-31T15:50:47.375Z,98398.13
2023-03-31T15:55:57.289Z,98391.16
2023-03-31T16:01:06.576Z,98395.19
2023-03-31T16:06:30.852Z,98401.59
2023-03-31T16:11:40.940Z,98400.69
2023-03-31T16:17:04.917Z,98401.16
2023-03-31T16:22:19.920Z,98411.38
2023-03-31T16:27:38.776Z,98417.19
2023-03-31T16:33:02.341Z,98431.09
2023-03-31T16:38:24.944Z,98431.75
2023-03-31T16:43:36.235Z,98429.22
2023-03-31T16:49:12.059Z,98430.06
2023-03-31T16:54:20.430Z,98436.31
2023-03-31T16:59:39.574Z,98440.25
2023-03-31T17:04:45.284Z,98430.34
2023-03-31T17:09:51.692Z,98431.69
2023-03-31T17:15:06.347Z,98424.19
2023-03-31T17:20:16.384Z,98424.34
2023-03-31T17:25:36.360Z,98426.50
2023-03-31T17:30:50.614Z,98426.69
2023-03-31T17:36:01.818Z,98435.56
2023-03-31T17:41:12.058Z,98440.63
2023-03-31T17:46:23.240Z,98445.03
2023-03-31T17:51:35.618Z,98449.47
2023-03-31T17:56:59.381Z,98446.69
2023-03-31T18:02:11.338Z,98457.53
2023-03-31T18:07:28.839Z,98463.75
2023-03-31T18:12:34.764Z,98461.97
2023-03-31T18:17:51.257Z,98469.63
2023-03-31T18:22:57.096Z,98480.50
2023-03-31T18:28:36.401Z,98476.88
2023-03-31T18:33:46.518Z,98480.69
2023-03-31T18:38:59.072Z,98474.16
2023-03-31T18:44:05.655Z,98478.25
2023-03-31T18:49:12.620Z,98486.72
2023-03-31T18:54:34.311Z,98485.31
2023-03-31T18:59:42.242Z,98489.72
2023-03-31T19:04:46.123Z,98482.84
2023-03-31T19:09:57.545Z,98480.44
2023-03-31T19:15:04.004Z,98483.34
2023-03-31T19:20:19.803Z,98485.97
2023-03-31T19:25:29.293Z,98481.66
2023-03-31T19:30:40.376Z,98477.59
2023-03-31T19:35:51.315Z,98474.25
2023-03-31T19:41:01.333Z,98478.84
2023-03-31T19:46:11.698Z,98476.69
2023-03-31T19:51:17.571Z,98471.81
2023-03-31T19:56:25.981Z,98479.66
2023-03-31T20:01:35.866Z,98477.88
2023-03-31T20:06:40.530Z,98472.09
2023-03-31T20:11:45.790Z,98472.53
2023-03-31T20:17:00.473Z,98475.81
2023-03-31T20:22:09.281Z,98483.81
2023-03-31T20:27:16.148Z,98478.59
2023-03-31T20:32:22.953Z,98480.75
2023-03-31T20:37:27.696Z,98479.66
2023-03-31T20:42:36.454Z,98479.41
2023-03-31T20:47:47.793Z,98477.50
2023-03-31T20:52:59.542Z,98476.16
2023-03-31T20:58:06.450Z,98481.38
2023-03-31T21:03:13.840Z,98486.63
2023-03-31T21:08:27.151Z,98480.56
2023-03-31T21:13:40.687Z,98481.22
2023-03-31T21:18:52.198Z,98487.25
2023-03-31T21:24:02.474Z,98493.13
2023-03-31T21:29:10.712Z,98493.75
2023-03-31T21:34:27.684Z,98495.66
2023-03-31T21:39:35.965Z,98484.19
2023-03-31T21:44:48.903Z,98493.66
2023-03-31T21:49:54.988Z,98492.84
2023-03-31T21:55:01.979Z,98496.47
2023-03-31T22:00:12.659Z,98491.06
2023-03-31T22:05:19.964Z,98487.97
2023-03-31T22:10:24.648Z,98490.78
2023-03-31T22:15:30.916Z,98501.91
2023-03-31T22:20:39.349Z,98499.44
2023-03-31T22:25:49.696Z,98501.28
2023-03-31T22:30:55.143Z,98506.22
2023-03-31T22:36:07.499Z,98505.94
2023-03-31T22:41:14.758Z,98511.09
2023-03-31T22:46:19.662Z,98505.56
2023-03-31T22:51:30.136Z,98508.34
2023-03-31T22:56:43.978Z,98511.69
2023-03-31T23:01:53.471Z,98519.09
2023-03-31T23:06:59.703Z,98514.56
2023-03-31T23:12:05.596Z,98514.38
2023-03-31T23:17:12.134Z,98528.28
2023-03-31T23:22:18.957Z,98516.19
2023-03-31T23:27:28.396Z,98515.00
2023-03-31T23:32:32.520Z,98520.25
2023-03-31T23:37:38.540Z,98519.28
2023-03-31T23:42:42.971Z,98510.25
2023-03-31T23:47:50.065Z,98506.81
2023-03-31T23:52:59.748Z,98515.66
2023-03-31T23:58:04.318Z,98505.53
